sensor_id;sensor_type;location;lat;lon;timestamp;temperature;humidity
2653;DHT22;1336;48.692;9.144;2023-02-20T09:31:14;24.10;97.20
2653;DHT22;1336;48.692;9.144;2023-02-20T09:32:06;24.20;97.20
2653;DHT22;1336;48.692;9.144;2023-02-20T09:32:56;25.20;97.20
2653;DHT22;1336;48.692;9.144;2023-02-20T09:33:48;26.20;97.20
2653;DHT22;1336;48.692;9.144;2023-02-20T09:34:39;27.10;96.70
2653;DHT22;1336;48.692;9.144;2023-02-20T09:35:31;28.00;95.00
2653;DHT22;1336;48.692;9.144;2023-02-20T09:36:21;28.70;92.10
2653;DHT22;1336;48.692;9.144;2023-02-20T09:37:13;29.30;90.70
2653;DHT22;1336;48.692;9.144;2023-02-20T09:38:05;29.70;88.30
2653;DHT22;1336;48.692;9.144;2023-02-20T09:38:57;30.10;86.90
2653;DHT22;1336;48.692;9.144;2023-02-20T09:39:48;30.40;85.30
2653;DHT22;1336;48.692;9.144;2023-02-20T09:40:47;30.80;85.00
2653;DHT22;1336;48.692;9.144;2023-02-20T09:41:50;31.30;84.10
2653;DHT22;1336;48.692;9.144;2023-02-20T09:42:55;31.60;82.20
2653;DHT22;1336;48.692;9.144;2023-02-20T09:43:57;32.00;81.80
2653;DHT22;1336;48.692;9.144;2023-02-20T09:44:58;32.50;80.80
2653;DHT22;1336;48.692;9.144;2023-02-20T09:45:56;33.10;80.10
2653;DHT22;1336;48.692;9.144;2023-02-20T09:46:49;33.60;78.80
2653;DHT22;1336;48.692;9.144;2023-02-20T09:47:51;33.90;76.40
2653;DHT22;1336;48.692;9.144;2023-02-20T09:49:07;34.00;76.10
2653;DHT22;1336;48.692;9.144;2023-02-20T09:50:05;34.40;74.80
2653;DHT22;1336;48.692;9.144;2023-02-20T09:50:58;34.70;74.90
2653;DHT22;1336;48.692;9.144;2023-02-20T09:51:56;35.00;73.20
2653;DHT22;1336;48.692;9.144;2023-02-20T09:52:57;35.30;74.10
2653;DHT22;1336;48.692;9.144;2023-02-20T09:53:56;35.60;72.20
2653;DHT22;1336;48.692;9.144;2023-02-20T09:54:51;36.00;71.70
2653;DHT22;1336;48.692;9.144;2023-02-20T09:55:45;36.40;72.10
2653;DHT22;1336;48.692;9.144;2023-02-20T09:56:39;36.90;71.50
2653;DHT22;1336;48.692;9.144;2023-02-20T09:57:34;36.90;70.30
2653;DHT22;1336;48.692;9.144;2023-02-20T09:58:28;36.60;70.40
2653;DHT22;1336;48.692;9.144;2023-02-20T09:59:28;36.20;70.40
2653;DHT22;1336;48.692;9.144;2023-02-20T10:00:27;35.90;70.40
2653;DHT22;1336;48.692;9.144;2023-02-20T10:01:21;35.70;70.80
2653;DHT22;1336;48.692;9.144;2023-02-20T10:02:16;35.70;71.20
2653;DHT22;1336;48.692;9.144;2023-02-20T10:03:17;35.60;70.90
2653;DHT22;1336;48.692;9.144;2023-02-20T10:04:12;35.30;70.30
2653;DHT22;1336;48.692;9.144;2023-02-20T10:05:19;35.00;70.90
2653;DHT22;1336;48.692;9.144;2023-02-20T10:06:15;34.60;71.90
2653;DHT22;1336;48.692;9.144;2023-02-20T10:07:15;34.20;72.50
2653;DHT22;1336;48.692;9.144;2023-02-20T10:08:15;34.00;72.30
2653;DHT22;1336;48.692;9.144;2023-02-20T10:09:12;34.10;73.10
2653;DHT22;1336;48.692;9.144;2023-02-20T10:10:17;34.20;73.00
2653;DHT22;1336;48.692;9.144;2023-02-20T10:11:16;34.20;71.40
2653;DHT22;1336;48.692;9.144;2023-02-20T10:12:16;34.20;72.20
2653;DHT22;1336;48.692;9.144;2023-02-20T10:13:26;33.70;71.90
2653;DHT22;1336;48.692;9.144;2023-02-20T10:14:35;33.10;72.30
2653;DHT22;1336;48.692;9.144;2023-02-20T10:15:30;32.30;72.30
2653;DHT22;1336;48.692;9.144;2023-02-20T10:16:32;31.50;73.70
2653;DHT22;1336;48.692;9.144;2023-02-20T10:17:31;30.60;73.30
2653;DHT22;1336;48.692;9.144;2023-02-20T10:18:33;30.10;73.40
2653;DHT22;1336;48.692;9.144;2023-02-20T10:19:31;29.60;74.10
2653;DHT22;1336;48.692;9.144;2023-02-20T10:20:34;29.20;75.20
2653;DHT22;1336;48.692;9.144;2023-02-20T10:21:35;28.60;76.50
2653;DHT22;1336;48.692;9.144;2023-02-20T10:22:32;28.20;76.90
2653;DHT22;1336;48.692;9.144;2023-02-20T10:23:32;28.00;77.60
2653;DHT22;1336;48.692;9.144;2023-02-20T10:24:42;28.10;77.80
2653;DHT22;1336;48.692;9.144;2023-02-20T10:25:38;28.80;77.40
2653;DHT22;1336;48.692;9.144;2023-02-20T10:26:33;29.70;76.70
2653;DHT22;1336;48.692;9.144;2023-02-20T10:27:31;30.90;75.70
2653;DHT22;1336;48.692;9.144;2023-02-20T10:28:27;32.20;73.90
2653;DHT22;1336;48.692;9.144;2023-02-20T10:29:21;33.40;72.60
2653;DHT22;1336;48.692;9.144;2023-02-20T10:31:20;35.80;70.60
2653;DHT22;1336;48.692;9.144;2023-02-20T10:32:17;36.70;68.70
2653;DHT22;1336;48.692;9.144;2023-02-20T10:33:20;37.30;67.00
2653;DHT22;1336;48.692;9.144;2023-02-20T10:34:18;37.80;66.30
2653;DHT22;1336;48.692;9.144;2023-02-20T10:35:14;38.40;66.10
2653;DHT22;1336;48.692;9.144;2023-02-20T10:36:10;39.10;65.60
2653;DHT22;1336;48.692;9.144;2023-02-20T10:37:07;39.80;65.00
2653;DHT22;1336;48.692;9.144;2023-02-20T10:38:02;40.60;64.40
2653;DHT22;1336;48.692;9.144;2023-02-20T10:39:00;41.00;63.40
2653;DHT22;1336;48.692;9.144;2023-02-20T10:40:02;41.40;62.80
2653;DHT22;1336;48.692;9.144;2023-02-20T10:41:01;41.50;62.40
2653;DHT22;1336;48.692;9.144;2023-02-20T10:41:57;41.90;62.00
2653;DHT22;1336;48.692;9.144;2023-02-20T10:42:57;42.10;61.80
2653;DHT22;1336;48.692;9.144;2023-02-20T10:43:54;42.50;61.10
2653;DHT22;1336;48.692;9.144;2023-02-20T10:44:55;43.00;61.10
2653;DHT22;1336;48.692;9.144;2023-02-20T10:45:52;43.40;60.50
2653;DHT22;1336;48.692;9.144;2023-02-20T10:46:48;43.80;59.90
2653;DHT22;1336;48.692;9.144;2023-02-20T10:47:45;43.70;58.80
2653;DHT22;1336;48.692;9.144;2023-02-20T10:48:40;43.80;58.80
2653;DHT22;1336;48.692;9.144;2023-02-20T10:49:40;43.70;58.50
2653;DHT22;1336;48.692;9.144;2023-02-20T10:50:37;43.80;58.40
2653;DHT22;1336;48.692;9.144;2023-02-20T10:51:32;43.80;58.10
2653;DHT22;1336;48.692;9.144;2023-02-20T10:52:28;43.90;58.00
2653;DHT22;1336;48.692;9.144;2023-02-20T10:53:25;44.10;58.20
2653;DHT22;1336;48.692;9.144;2023-02-20T10:54:24;44.20;57.90
2653;DHT22;1336;48.692;9.144;2023-02-20T10:55:25;44.50;57.90
2653;DHT22;1336;48.692;9.144;2023-02-20T10:56:19;44.70;57.50
2653;DHT22;1336;48.692;9.144;2023-02-20T10:57:19;44.90;57.50
2653;DHT22;1336;48.692;9.144;2023-02-20T10:58:15;45.00;57.10
2653;DHT22;1336;48.692;9.144;2023-02-20T10:59:09;45.00;56.90
2653;DHT22;1336;48.692;9.144;2023-02-20T11:00:09;45.00;56.40
2653;DHT22;1336;48.692;9.144;2023-02-20T11:01:05;44.80;56.10
2653;DHT22;1336;48.692;9.144;2023-02-20T11:01:58;44.60;56.30
2653;DHT22;1336;48.692;9.144;2023-02-20T11:02:55;44.60;56.70
2653;DHT22;1336;48.692;9.144;2023-02-20T11:03:53;44.70;56.70
2653;DHT22;1336;48.692;9.144;2023-02-20T11:04:51;44.80;55.90
2653;DHT22;1336;48.692;9.144;2023-02-20T11:05:49;44.70;56.00
2653;DHT22;1336;48.692;9.144;2023-02-20T11:06:43;44.90;56.30
2653;DHT22;1336;48.692;9.144;2023-02-20T11:07:35;44.90;55.90
2653;DHT22;1336;48.692;9.144;2023-02-20T11:08:26;45.00;55.70
2653;DHT22;1336;48.692;9.144;2023-02-20T11:09:18;45.10;56.10
2653;DHT22;1336;48.692;9.144;2023-02-20T11:10:12;45.20;55.30
2653;DHT22;1336;48.692;9.144;2023-02-20T11:11:20;45.30;55.90
2653;DHT22;1336;48.692;9.144;2023-02-20T11:12:21;45.60;54.70
2653;DHT22;1336;48.692;9.144;2023-02-20T11:13:17;45.90;55.20
2653;DHT22;1336;48.692;9.144;2023-02-20T11:14:12;46.20;55.30
2653;DHT22;1336;48.692;9.144;2023-02-20T11:15:06;46.50;54.70
2653;DHT22;1336;48.692;9.144;2023-02-20T11:15:58;46.50;54.80
2653;DHT22;1336;48.692;9.144;2023-02-20T11:17:00;46.60;54.50
2653;DHT22;1336;48.692;9.144;2023-02-20T11:17:58;46.70;55.40
2653;DHT22;1336;48.692;9.144;2023-02-20T11:18:55;47.10;55.20
2653;DHT22;1336;48.692;9.144;2023-02-20T11:19:48;47.40;54.40
2653;DHT22;1336;48.692;9.144;2023-02-20T11:20:42;47.70;54.20
2653;DHT22;1336;48.692;9.144;2023-02-20T11:21:49;47.90;53.60
2653;DHT22;1336;48.692;9.144;2023-02-20T11:22:45;48.00;53.70
2653;DHT22;1336;48.692;9.144;2023-02-20T11:23:39;48.20;54.50
2653;DHT22;1336;48.692;9.144;2023-02-20T11:24:33;48.40;54.00
2653;DHT22;1336;48.692;9.144;2023-02-20T11:25:26;48.70;53.90
2653;DHT22;1336;48.692;9.144;2023-02-20T11:28:15;49.10;52.50
2653;DHT22;1336;48.692;9.144;2023-02-20T11:29:18;49.10;52.90
2653;DHT22;1336;48.692;9.144;2023-02-20T11:31:49;49.10;52.10
2653;DHT22;1336;48.692;9.144;2023-02-20T11:32:40;49.30;53.60
2653;DHT22;1336;48.692;9.144;2023-02-20T11:33:34;49.40;53.50
2653;DHT22;1336;48.692;9.144;2023-02-20T11:34:30;49.50;52.40
2653;DHT22;1336;48.692;9.144;2023-02-20T11:35:27;49.50;51.90
2653;DHT22;1336;48.692;9.144;2023-02-20T11:36:23;49.10;51.30
2653;DHT22;1336;48.692;9.144;2023-02-20T11:37:16;48.70;52.00
2653;DHT22;1336;48.692;9.144;2023-02-20T11:38:32;48.40;52.00
2653;DHT22;1336;48.692;9.144;2023-02-20T11:39:27;48.30;51.50
2653;DHT22;1336;48.692;9.144;2023-02-20T11:40:24;48.40;52.60
2653;DHT22;1336;48.692;9.144;2023-02-20T11:41:23;48.00;50.90
2653;DHT22;1336;48.692;9.144;2023-02-20T11:42:19;47.80;51.90
2653;DHT22;1336;48.692;9.144;2023-02-20T11:43:16;47.80;52.40
2653;DHT22;1336;48.692;9.144;2023-02-20T11:44:24;47.70;51.70
2653;DHT22;1336;48.692;9.144;2023-02-20T11:45:21;47.60;52.60
2653;DHT22;1336;48.692;9.144;2023-02-20T11:46:15;47.80;52.80
2653;DHT22;1336;48.692;9.144;2023-02-20T11:47:25;47.90;52.50
2653;DHT22;1336;48.692;9.144;2023-02-20T11:48:19;48.10;52.00
2653;DHT22;1336;48.692;9.144;2023-02-20T11:49:11;48.30;53.10
2653;DHT22;1336;48.692;9.144;2023-02-20T11:50:14;48.50;53.30
2653;DHT22;1336;48.692;9.144;2023-02-20T11:51:31;48.90;52.80
2653;DHT22;1336;48.692;9.144;2023-02-20T11:52:23;49.10;52.40
2653;DHT22;1336;48.692;9.144;2023-02-20T11:53:20;49.30;52.30
2653;DHT22;1336;48.692;9.144;2023-02-20T11:54:15;49.40;52.20
2653;DHT22;1336;48.692;9.144;2023-02-20T11:55:11;49.50;51.90
2653;DHT22;1336;48.692;9.144;2023-02-20T11:56:12;49.60;51.90
2653;DHT22;1336;48.692;9.144;2023-02-20T11:57:10;49.70;51.50
2653;DHT22;1336;48.692;9.144;2023-02-20T11:58:20;49.70;51.30
2653;DHT22;1336;48.692;9.144;2023-02-20T11:59:25;49.70;51.50
2653;DHT22;1336;48.692;9.144;2023-02-20T12:00:18;49.90;51.60
2653;DHT22;1336;48.692;9.144;2023-02-20T12:01:27;50.00;51.70
2653;DHT22;1336;48.692;9.144;2023-02-20T12:02:24;50.10;50.80
2653;DHT22;1336;48.692;9.144;2023-02-20T12:03:20;50.10;51.00
2653;DHT22;1336;48.692;9.144;2023-02-20T12:04:18;50.10;50.80
2653;DHT22;1336;48.692;9.144;2023-02-20T12:05:11;49.90;50.50
2653;DHT22;1336;48.692;9.144;2023-02-20T12:06:37;49.70;50.50
2653;DHT22;1336;48.692;9.144;2023-02-20T12:07:35;49.70;50.90
2653;DHT22;1336;48.692;9.144;2023-02-20T12:08:41;49.80;50.60
2653;DHT22;1336;48.692;9.144;2023-02-20T12:09:34;50.00;50.50
2653;DHT22;1336;48.692;9.144;2023-02-20T12:10:34;50.20;50.50
2653;DHT22;1336;48.692;9.144;2023-02-20T12:11:28;50.30;51.00
2653;DHT22;1336;48.692;9.144;2023-02-20T12:12:20;50.40;51.10
2653;DHT22;1336;48.692;9.144;2023-02-20T12:13:15;50.60;51.00
2653;DHT22;1336;48.692;9.144;2023-02-20T12:14:11;50.80;51.50
2653;DHT22;1336;48.692;9.144;2023-02-20T12:15:10;50.90;51.30
2653;DHT22;1336;48.692;9.144;2023-02-20T12:16:14;51.10;50.90
2653;DHT22;1336;48.692;9.144;2023-02-20T12:17:18;51.30;51.20
2653;DHT22;1336;48.692;9.144;2023-02-20T12:18:35;51.50;50.50
2653;DHT22;1336;48.692;9.144;2023-02-20T12:19:38;51.60;49.30
2653;DHT22;1336;48.692;9.144;2023-02-20T12:20:36;51.80;50.00
2653;DHT22;1336;48.692;9.144;2023-02-20T12:21:39;51.80;50.20
2653;DHT22;1336;48.692;9.144;2023-02-20T12:22:34;51.90;50.50
2653;DHT22;1336;48.692;9.144;2023-02-20T12:23:34;52.00;50.60
2653;DHT22;1336;48.692;9.144;2023-02-20T12:24:39;52.20;49.80
2653;DHT22;1336;48.692;9.144;2023-02-20T12:25:46;52.40;49.50
2653;DHT22;1336;48.692;9.144;2023-02-20T12:26:48;52.60;49.00
2653;DHT22;1336;48.692;9.144;2023-02-20T12:27:55;52.80;49.30
2653;DHT22;1336;48.692;9.144;2023-02-20T12:29:00;52.90;47.90
2653;DHT22;1336;48.692;9.144;2023-02-20T12:30:02;52.90;47.60
2653;DHT22;1336;48.692;9.144;2023-02-20T12:31:05;52.90;48.60
2653;DHT22;1336;48.692;9.144;2023-02-20T12:32:10;53.00;48.60
2653;DHT22;1336;48.692;9.144;2023-02-20T12:33:24;52.90;47.20
2653;DHT22;1336;48.692;9.144;2023-02-20T12:34:33;52.40;48.00
2653;DHT22;1336;48.692;9.144;2023-02-20T12:35:30;52.00;47.70
2653;DHT22;1336;48.692;9.144;2023-02-20T12:36:29;51.80;47.90
2653;DHT22;1336;48.692;9.144;2023-02-20T12:37:32;51.80;47.80
2653;DHT22;1336;48.692;9.144;2023-02-20T12:38:33;51.50;47.90
2653;DHT22;1336;48.692;9.144;2023-02-20T12:39:38;51.40;47.30
2653;DHT22;1336;48.692;9.144;2023-02-20T12:40:39;51.40;47.70
2653;DHT22;1336;48.692;9.144;2023-02-20T12:41:43;51.50;48.30
2653;DHT22;1336;48.692;9.144;2023-02-20T12:42:42;51.50;48.20
2653;DHT22;1336;48.692;9.144;2023-02-20T12:43:44;51.60;48.20
2653;DHT22;1336;48.692;9.144;2023-02-20T12:45:02;51.70;48.50
2653;DHT22;1336;48.692;9.144;2023-02-20T12:46:04;51.80;47.70
2653;DHT22;1336;48.692;9.144;2023-02-20T12:47:09;51.70;48.70
2653;DHT22;1336;48.692;9.144;2023-02-20T12:48:17;51.60;48.10
2653;DHT22;1336;48.692;9.144;2023-02-20T12:49:22;51.30;47.90
2653;DHT22;1336;48.692;9.144;2023-02-20T12:50:41;51.00;47.20
2653;DHT22;1336;48.692;9.144;2023-02-20T12:51:41;50.70;46.90
2653;DHT22;1336;48.692;9.144;2023-02-20T12:53:04;50.70;48.30
2653;DHT22;1336;48.692;9.144;2023-02-20T12:54:11;50.70;47.30
2653;DHT22;1336;48.692;9.144;2023-02-20T12:55:16;50.70;48.00
2653;DHT22;1336;48.692;9.144;2023-02-20T12:56:23;50.80;47.60
2653;DHT22;1336;48.692;9.144;2023-02-20T12:57:21;51.00;48.50
2653;DHT22;1336;48.692;9.144;2023-02-20T12:58:23;51.10;48.50
2653;DHT22;1336;48.692;9.144;2023-02-20T12:59:25;51.10;47.50
2653;DHT22;1336;48.692;9.144;2023-02-20T13:00:29;51.00;47.70
2653;DHT22;1336;48.692;9.144;2023-02-20T13:01:22;51.00;47.10
2653;DHT22;1336;48.692;9.144;2023-02-20T13:02:19;51.10;47.70
2653;DHT22;1336;48.692;9.144;2023-02-20T13:03:15;51.10;47.40
2653;DHT22;1336;48.692;9.144;2023-02-20T13:04:18;51.10;47.10
2653;DHT22;1336;48.692;9.144;2023-02-20T13:05:13;50.90;46.10
2653;DHT22;1336;48.692;9.144;2023-02-20T13:06:06;50.70;46.70
2653;DHT22;1336;48.692;9.144;2023-02-20T13:07:02;50.30;45.90
2653;DHT22;1336;48.692;9.144;2023-02-20T13:07:54;50.00;46.60
2653;DHT22;1336;48.692;9.144;2023-02-20T13:08:58;49.80;46.90
2653;DHT22;1336;48.692;9.144;2023-02-20T13:09:58;49.70;47.10
2653;DHT22;1336;48.692;9.144;2023-02-20T13:10:55;49.80;47.70
2653;DHT22;1336;48.692;9.144;2023-02-20T13:13:40;50.00;47.80
2653;DHT22;1336;48.692;9.144;2023-02-20T13:14:41;50.40;48.50
2653;DHT22;1336;48.692;9.144;2023-02-20T13:15:42;50.60;48.30
2653;DHT22;1336;48.692;9.144;2023-02-20T13:16:40;50.70;47.70
2653;DHT22;1336;48.692;9.144;2023-02-20T13:17:39;50.60;47.40
2653;DHT22;1336;48.692;9.144;2023-02-20T13:18:38;50.40;47.10
2653;DHT22;1336;48.692;9.144;2023-02-20T13:19:37;50.30;47.90
2653;DHT22;1336;48.692;9.144;2023-02-20T13:20:31;50.00;46.90
2653;DHT22;1336;48.692;9.144;2023-02-20T13:21:28;49.80;47.00
2653;DHT22;1336;48.692;9.144;2023-02-20T13:22:20;49.50;46.80
2653;DHT22;1336;48.692;9.144;2023-02-20T13:23:26;49.30;46.60
2653;DHT22;1336;48.692;9.144;2023-02-20T13:24:29;49.20;47.40
2653;DHT22;1336;48.692;9.144;2023-02-20T13:25:42;49.30;48.30
2653;DHT22;1336;48.692;9.144;2023-02-20T13:26:46;49.40;47.50
2653;DHT22;1336;48.692;9.144;2023-02-20T13:27:37;49.40;46.70
2653;DHT22;1336;48.692;9.144;2023-02-20T13:28:35;49.50;47.90
2653;DHT22;1336;48.692;9.144;2023-02-20T13:29:33;49.50;47.10
2653;DHT22;1336;48.692;9.144;2023-02-20T13:30:26;49.50;47.00
2653;DHT22;1336;48.692;9.144;2023-02-20T13:31:21;49.50;47.40
2653;DHT22;1336;48.692;9.144;2023-02-20T13:32:24;49.20;46.60
2653;DHT22;1336;48.692;9.144;2023-02-20T13:33:27;49.00;47.80
2653;DHT22;1336;48.692;9.144;2023-02-20T13:35:48;48.90;46.70
2653;DHT22;1336;48.692;9.144;2023-02-20T13:36:41;49.00;47.70
2653;DHT22;1336;48.692;9.144;2023-02-20T13:37:55;49.10;48.20
2653;DHT22;1336;48.692;9.144;2023-02-20T13:40:34;49.60;47.50
2653;DHT22;1336;48.692;9.144;2023-02-20T13:41:56;49.90;46.10
2653;DHT22;1336;48.692;9.144;2023-02-20T13:42:47;50.00;46.60
2653;DHT22;1336;48.692;9.144;2023-02-20T13:44:36;49.80;47.00
2653;DHT22;1336;48.692;9.144;2023-02-20T13:45:38;49.70;47.40
2653;DHT22;1336;48.692;9.144;2023-02-20T13:46:54;49.80;48.00
2653;DHT22;1336;48.692;9.144;2023-02-20T13:47:45;49.90;48.40
2653;DHT22;1336;48.692;9.144;2023-02-20T13:48:42;49.90;47.30
2653;DHT22;1336;48.692;9.144;2023-02-20T13:49:55;49.80;46.50
2653;DHT22;1336;48.692;9.144;2023-02-20T13:50:48;49.70;45.90
2653;DHT22;1336;48.692;9.144;2023-02-20T13:51:38;49.70;46.40
2653;DHT22;1336;48.692;9.144;2023-02-20T13:52:35;49.60;46.70
2653;DHT22;1336;48.692;9.144;2023-02-20T13:53:28;49.60;46.40
2653;DHT22;1336;48.692;9.144;2023-02-20T13:54:23;49.50;46.80
2653;DHT22;1336;48.692;9.144;2023-02-20T13:55:21;49.30;46.10
2653;DHT22;1336;48.692;9.144;2023-02-20T13:56:14;49.10;45.90
2653;DHT22;1336;48.692;9.144;2023-02-20T13:57:15;48.80;46.40
2653;DHT22;1336;48.692;9.144;2023-02-20T13:58:11;48.70;45.80
2653;DHT22;1336;48.692;9.144;2023-02-20T13:59:10;48.50;46.60
2653;DHT22;1336;48.692;9.144;2023-02-20T14:00:19;48.50;46.80
2653;DHT22;1336;48.692;9.144;2023-02-20T14:01:13;48.50;47.60
2653;DHT22;1336;48.692;9.144;2023-02-20T14:02:17;48.50;47.40
2653;DHT22;1336;48.692;9.144;2023-02-20T14:03:11;48.50;46.40
2653;DHT22;1336;48.692;9.144;2023-02-20T14:04:05;48.50;47.50
2653;DHT22;1336;48.692;9.144;2023-02-20T14:04:59;48.50;47.90
2653;DHT22;1336;48.692;9.144;2023-02-20T14:06:03;48.50;48.10
2653;DHT22;1336;48.692;9.144;2023-02-20T14:06:55;48.50;48.20
2653;DHT22;1336;48.692;9.144;2023-02-20T14:07:47;48.50;48.30
2653;DHT22;1336;48.692;9.144;2023-02-20T14:08:39;48.50;47.90
2653;DHT22;1336;48.692;9.144;2023-02-20T14:09:31;48.40;47.50
2653;DHT22;1336;48.692;9.144;2023-02-20T14:10:27;48.30;47.10
2653;DHT22;1336;48.692;9.144;2023-02-20T14:11:25;48.20;46.00
2653;DHT22;1336;48.692;9.144;2023-02-20T14:12:17;48.10;46.70
2653;DHT22;1336;48.692;9.144;2023-02-20T14:13:13;48.00;46.80
2653;DHT22;1336;48.692;9.144;2023-02-20T14:14:08;47.80;46.40
2653;DHT22;1336;48.692;9.144;2023-02-20T14:15:04;47.70;46.60
2653;DHT22;1336;48.692;9.144;2023-02-20T14:15:57;47.40;45.90
2653;DHT22;1336;48.692;9.144;2023-02-20T14:16:49;47.10;47.00
2653;DHT22;1336;48.692;9.144;2023-02-20T14:17:41;46.70;45.80
2653;DHT22;1336;48.692;9.144;2023-02-20T14:18:34;46.50;46.20
2653;DHT22;1336;48.692;9.144;2023-02-20T14:19:26;46.40;46.30
2653;DHT22;1336;48.692;9.144;2023-02-20T14:20:22;46.30;46.70
2653;DHT22;1336;48.692;9.144;2023-02-20T14:21:16;46.30;47.30
2653;DHT22;1336;48.692;9.144;2023-02-20T14:22:24;45.90;46.40
2653;DHT22;1336;48.692;9.144;2023-02-20T14:23:23;45.80;46.00
2653;DHT22;1336;48.692;9.144;2023-02-20T14:24:18;45.70;46.40
2653;DHT22;1336;48.692;9.144;2023-02-20T14:25:22;45.70;47.10
2653;DHT22;1336;48.692;9.144;2023-02-20T14:26:19;45.60;46.20
2653;DHT22;1336;48.692;9.144;2023-02-20T14:27:24;45.50;46.90
2653;DHT22;1336;48.692;9.144;2023-02-20T14:28:15;45.60;46.80
2653;DHT22;1336;48.692;9.144;2023-02-20T14:29:19;45.70;47.60
2653;DHT22;1336;48.692;9.144;2023-02-20T14:30:14;45.60;48.10
2653;DHT22;1336;48.692;9.144;2023-02-20T14:31:18;45.50;47.10
2653;DHT22;1336;48.692;9.144;2023-02-20T14:32:13;45.60;47.30
2653;DHT22;1336;48.692;9.144;2023-02-20T14:33:14;45.60;47.40
2653;DHT22;1336;48.692;9.144;2023-02-20T14:34:15;45.60;47.70
2653;DHT22;1336;48.692;9.144;2023-02-20T14:35:23;45.70;47.70
2653;DHT22;1336;48.692;9.144;2023-02-20T14:36:38;45.70;46.40
2653;DHT22;1336;48.692;9.144;2023-02-20T14:37:37;45.40;45.70
2653;DHT22;1336;48.692;9.144;2023-02-20T14:38:46;45.30;46.40
2653;DHT22;1336;48.692;9.144;2023-02-20T14:39:48;45.30;46.60
2653;DHT22;1336;48.692;9.144;2023-02-20T14:40:45;45.30;46.40
2653;DHT22;1336;48.692;9.144;2023-02-20T14:41:37;45.40;48.20
2653;DHT22;1336;48.692;9.144;2023-02-20T14:42:28;45.40;46.80
2653;DHT22;1336;48.692;9.144;2023-02-20T14:43:21;45.50;46.90
2653;DHT22;1336;48.692;9.144;2023-02-20T14:44:15;45.50;46.90
2653;DHT22;1336;48.692;9.144;2023-02-20T14:45:14;45.50;47.00
2653;DHT22;1336;48.692;9.144;2023-02-20T14:46:07;45.40;46.00
2653;DHT22;1336;48.692;9.144;2023-02-20T14:47:11;45.10;45.10
2653;DHT22;1336;48.692;9.144;2023-02-20T14:48:03;44.70;45.30
2653;DHT22;1336;48.692;9.144;2023-02-20T14:49:04;44.40;45.20
2653;DHT22;1336;48.692;9.144;2023-02-20T14:50:12;44.00;45.10
2653;DHT22;1336;48.692;9.144;2023-02-20T14:51:13;43.80;45.90
2653;DHT22;1336;48.692;9.144;2023-02-20T14:52:13;43.60;45.70
2653;DHT22;1336;48.692;9.144;2023-02-20T14:53:11;43.50;46.60
2653;DHT22;1336;48.692;9.144;2023-02-20T14:54:16;43.20;46.00
2653;DHT22;1336;48.692;9.144;2023-02-20T14:55:15;43.10;47.10
2653;DHT22;1336;48.692;9.144;2023-02-20T14:56:11;43.10;47.20
2653;DHT22;1336;48.692;9.144;2023-02-20T14:57:03;43.00;46.60
2653;DHT22;1336;48.692;9.144;2023-02-20T14:57:56;42.90;46.80
2653;DHT22;1336;48.692;9.144;2023-02-20T15:00:36;42.70;47.10
2653;DHT22;1336;48.692;9.144;2023-02-20T15:01:33;42.40;48.00
2653;DHT22;1336;48.692;9.144;2023-02-20T15:02:27;42.40;48.00
2653;DHT22;1336;48.692;9.144;2023-02-20T15:03:21;42.30;49.00
2653;DHT22;1336;48.692;9.144;2023-02-20T15:04:15;42.20;48.10
2653;DHT22;1336;48.692;9.144;2023-02-20T15:05:09;42.10;48.40
2653;DHT22;1336;48.692;9.144;2023-02-20T15:06:03;42.10;48.60
2653;DHT22;1336;48.692;9.144;2023-02-20T15:07:02;42.10;48.40
2653;DHT22;1336;48.692;9.144;2023-02-20T15:08:00;42.00;48.20
2653;DHT22;1336;48.692;9.144;2023-02-20T15:08:56;42.00;48.00
2653;DHT22;1336;48.692;9.144;2023-02-20T15:09:50;42.00;49.30
2653;DHT22;1336;48.692;9.144;2023-02-20T15:10:44;42.00;48.90
2653;DHT22;1336;48.692;9.144;2023-02-20T15:11:45;41.90;48.40
2653;DHT22;1336;48.692;9.144;2023-02-20T15:12:38;41.80;48.70
2653;DHT22;1336;48.692;9.144;2023-02-20T15:13:35;41.80;47.80
2653;DHT22;1336;48.692;9.144;2023-02-20T15:14:31;41.70;48.40
2653;DHT22;1336;48.692;9.144;2023-02-20T15:15:22;41.70;48.20
2653;DHT22;1336;48.692;9.144;2023-02-20T15:16:20;41.60;47.70
2653;DHT22;1336;48.692;9.144;2023-02-20T15:17:20;41.40;48.00
2653;DHT22;1336;48.692;9.144;2023-02-20T15:18:14;41.30;47.70
2653;DHT22;1336;48.692;9.144;2023-02-20T15:19:19;41.10;47.90
2653;DHT22;1336;48.692;9.144;2023-02-20T15:20:19;41.00;47.60
2653;DHT22;1336;48.692;9.144;2023-02-20T15:21:11;40.90;47.60
2653;DHT22;1336;48.692;9.144;2023-02-20T15:22:03;40.70;47.90
2653;DHT22;1336;48.692;9.144;2023-02-20T15:23:07;40.60;48.30
2653;DHT22;1336;48.692;9.144;2023-02-20T15:24:29;40.30;49.40
2653;DHT22;1336;48.692;9.144;2023-02-20T15:25:27;40.20;48.20
2653;DHT22;1336;48.692;9.144;2023-02-20T15:26:30;39.90;48.70
2653;DHT22;1336;48.692;9.144;2023-02-20T15:27:22;39.50;48.40
2653;DHT22;1336;48.692;9.144;2023-02-20T15:28:24;39.30;48.90
2653;DHT22;1336;48.692;9.144;2023-02-20T15:29:20;39.10;50.30
2653;DHT22;1336;48.692;9.144;2023-02-20T15:30:13;38.90;49.30
2653;DHT22;1336;48.692;9.144;2023-02-20T15:31:20;38.70;50.00
2653;DHT22;1336;48.692;9.144;2023-02-20T15:32:17;38.30;50.20
2653;DHT22;1336;48.692;9.144;2023-02-20T15:33:09;37.90;50.10
2653;DHT22;1336;48.692;9.144;2023-02-20T15:34:00;37.20;51.60
2653;DHT22;1336;48.692;9.144;2023-02-20T15:34:54;36.50;52.10
2653;DHT22;1336;48.692;9.144;2023-02-20T15:35:48;35.50;51.80
2653;DHT22;1336;48.692;9.144;2023-02-20T15:36:40;34.40;52.80
2653;DHT22;1336;48.692;9.144;2023-02-20T15:37:33;33.40;52.80
2653;DHT22;1336;48.692;9.144;2023-02-20T15:38:26;32.40;53.30
2653;DHT22;1336;48.692;9.144;2023-02-20T15:39:18;31.60;54.50
2653;DHT22;1336;48.692;9.144;2023-02-20T15:40:18;30.80;56.70
2653;DHT22;1336;48.692;9.144;2023-02-20T15:41:10;30.00;57.10
2653;DHT22;1336;48.692;9.144;2023-02-20T15:42:04;29.30;56.60
2653;DHT22;1336;48.692;9.144;2023-02-20T15:42:58;28.70;56.10
2653;DHT22;1336;48.692;9.144;2023-02-20T15:43:50;28.00;56.80
2653;DHT22;1336;48.692;9.144;2023-02-20T15:44:41;27.30;55.90
2653;DHT22;1336;48.692;9.144;2023-02-20T15:45:32;26.60;55.50
2653;DHT22;1336;48.692;9.144;2023-02-20T15:46:26;26.10;56.40
2653;DHT22;1336;48.692;9.144;2023-02-20T15:47:18;25.60;56.80
2653;DHT22;1336;48.692;9.144;2023-02-20T15:48:08;25.20;57.80
2653;DHT22;1336;48.692;9.144;2023-02-20T15:49:00;24.90;58.50
2653;DHT22;1336;48.692;9.144;2023-02-20T15:49:51;24.60;58.80
2653;DHT22;1336;48.692;9.144;2023-02-20T15:50:43;24.30;59.60
2653;DHT22;1336;48.692;9.144;2023-02-20T15:51:37;24.10;61.20
2653;DHT22;1336;48.692;9.144;2023-02-20T15:52:29;23.90;64.40
2653;DHT22;1336;48.692;9.144;2023-02-20T15:53:23;23.70;62.10
2653;DHT22;1336;48.692;9.144;2023-02-20T15:54:16;23.40;61.50
2653;DHT22;1336;48.692;9.144;2023-02-20T15:55:13;23.10;61.40
2653;DHT22;1336;48.692;9.144;2023-02-20T15:56:09;22.90;61.30
2653;DHT22;1336;48.692;9.144;2023-02-20T15:57:01;22.60;61.60
2653;DHT22;1336;48.692;9.144;2023-02-20T15:57:54;22.40;61.40
2653;DHT22;1336;48.692;9.144;2023-02-20T15:58:47;22.20;61.60
2653;DHT22;1336;48.692;9.144;2023-02-20T15:59:38;22.10;62.70
2653;DHT22;1336;48.692;9.144;2023-02-20T16:00:31;21.90;62.70
2653;DHT22;1336;48.692;9.144;2023-02-20T16:01:22;21.80;64.40
2653;DHT22;1336;48.692;9.144;2023-02-20T16:02:17;21.80;68.70
2653;DHT22;1336;48.692;9.144;2023-02-20T16:03:09;21.70;69.30